<?xml version="1.0" encoding="UTF-8" standalone="no" ?>
<gpx xmlns="http://www.topografix.com/GPX/1/1" creator="CompeGPS" version="1.1" xmlns:xsi="http://www.w3.org/2001/XMLSchema-instance" xsi:schemaLocation="http://www.topografix.com/GPX/1/1 http://www.topografix.com/GPX/1/1/gpx.xsd">
  <metadata>
    <link href="http://www.compegps.com">
      <text>CompeGPS TEAM, SL</text>
    </link>
    <time>2022-12-03T15:07:39Z</time>
    <bounds maxlat="36.827190" maxlon="-3.628849" minlat="36.800710" minlon="-3.647721"/>
  </metadata>
  <trk>
    <name>Sierra_del_Chaparral-Penyon_de_Bodíjar</name>
    <trkseg>
      <trkpt lat="36.800710" lon="-3.642219">
        <ele>390.0</ele>
        <time>2022-11-27T08:14:14Z</time>
      </trkpt>
      <trkpt lat="36.800878" lon="-3.642141">
        <ele>392.8</ele>
        <time>2022-11-27T08:15:00Z</time>
      </trkpt>
      <trkpt lat="36.801046" lon="-3.642122">
        <ele>390.4</ele>
        <time>2022-11-27T08:15:41Z</time>
      </trkpt>
      <trkpt lat="36.801277" lon="-3.642088">
        <ele>388.5</ele>
        <time>2022-11-27T08:16:07Z</time>
      </trkpt>
      <trkpt lat="36.801255" lon="-3.641887">
        <ele>387.5</ele>
        <time>2022-11-27T08:16:28Z</time>
      </trkpt>
      <trkpt lat="36.801142" lon="-3.641656">
        <ele>387.1</ele>
        <time>2022-11-27T08:16:43Z</time>
      </trkpt>
      <trkpt lat="36.800956" lon="-3.641459">
        <ele>390.4</ele>
        <time>2022-11-27T08:17:04Z</time>
      </trkpt>
      <trkpt lat="36.800956" lon="-3.641297">
        <ele>391.4</ele>
        <time>2022-11-27T08:18:06Z</time>
      </trkpt>
      <trkpt lat="36.800862" lon="-3.641068">
        <ele>390.4</ele>
        <time>2022-11-27T08:18:26Z</time>
      </trkpt>
      <trkpt lat="36.800929" lon="-3.640813">
        <ele>392.4</ele>
        <time>2022-11-27T08:18:42Z</time>
      </trkpt>
      <trkpt lat="36.800954" lon="-3.640622">
        <ele>392.4</ele>
        <time>2022-11-27T08:19:32Z</time>
      </trkpt>
      <trkpt lat="36.801020" lon="-3.640694">
        <ele>393.3</ele>
        <time>2022-11-27T08:20:24Z</time>
      </trkpt>
      <trkpt lat="36.801193" lon="-3.640945">
        <ele>397.2</ele>
        <time>2022-11-27T08:20:59Z</time>
      </trkpt>
      <trkpt lat="36.801412" lon="-3.641052">
        <ele>400.0</ele>
        <time>2022-11-27T08:21:19Z</time>
      </trkpt>
      <trkpt lat="36.801581" lon="-3.641055">
        <ele>401.5</ele>
        <time>2022-11-27T08:21:34Z</time>
      </trkpt>
      <trkpt lat="36.801838" lon="-3.641136">
        <ele>402.4</ele>
        <time>2022-11-27T08:22:22Z</time>
      </trkpt>
      <trkpt lat="36.802065" lon="-3.641277">
        <ele>403.9</ele>
        <time>2022-11-27T08:22:50Z</time>
      </trkpt>
      <trkpt lat="36.802283" lon="-3.641334">
        <ele>402.4</ele>
        <time>2022-11-27T08:23:17Z</time>
      </trkpt>
      <trkpt lat="36.802532" lon="-3.641317">
        <ele>401.5</ele>
        <time>2022-11-27T08:23:37Z</time>
      </trkpt>
      <trkpt lat="36.802710" lon="-3.641138">
        <ele>402.9</ele>
        <time>2022-11-27T08:23:56Z</time>
      </trkpt>
      <trkpt lat="36.802935" lon="-3.641059">
        <ele>406.8</ele>
        <time>2022-11-27T08:24:16Z</time>
      </trkpt>
      <trkpt lat="36.803161" lon="-3.641113">
        <ele>415.9</ele>
        <time>2022-11-27T08:24:42Z</time>
      </trkpt>
      <trkpt lat="36.803341" lon="-3.640944">
        <ele>421.2</ele>
        <time>2022-11-27T08:25:11Z</time>
      </trkpt>
      <trkpt lat="36.803398" lon="-3.640648">
        <ele>426.5</ele>
        <time>2022-11-27T08:25:32Z</time>
      </trkpt>
      <trkpt lat="36.803465" lon="-3.640418">
        <ele>426.5</ele>
        <time>2022-11-27T08:25:48Z</time>
      </trkpt>
      <trkpt lat="36.803626" lon="-3.640305">
        <ele>424.6</ele>
        <time>2022-11-27T08:26:04Z</time>
      </trkpt>
      <trkpt lat="36.803755" lon="-3.640150">
        <ele>425.0</ele>
        <time>2022-11-27T08:26:18Z</time>
      </trkpt>
      <trkpt lat="36.803887" lon="-3.640032">
        <ele>428.9</ele>
        <time>2022-11-27T08:26:46Z</time>
      </trkpt>
      <trkpt lat="36.804064" lon="-3.640136">
        <ele>433.2</ele>
        <time>2022-11-27T08:27:07Z</time>
      </trkpt>
      <trkpt lat="36.804240" lon="-3.640076">
        <ele>438.0</ele>
        <time>2022-11-27T08:27:27Z</time>
      </trkpt>
      <trkpt lat="36.804405" lon="-3.639953">
        <ele>443.8</ele>
        <time>2022-11-27T08:27:54Z</time>
      </trkpt>
      <trkpt lat="36.804545" lon="-3.639726">
        <ele>445.7</ele>
        <time>2022-11-27T08:28:15Z</time>
      </trkpt>
      <trkpt lat="36.804582" lon="-3.639486">
        <ele>448.1</ele>
        <time>2022-11-27T08:28:32Z</time>
      </trkpt>
      <trkpt lat="36.804581" lon="-3.639251">
        <ele>450.0</ele>
        <time>2022-11-27T08:28:49Z</time>
      </trkpt>
      <trkpt lat="36.804583" lon="-3.639076">
        <ele>453.9</ele>
        <time>2022-11-27T08:30:06Z</time>
      </trkpt>
      <trkpt lat="36.804738" lon="-3.638987">
        <ele>458.2</ele>
        <time>2022-11-27T08:30:26Z</time>
      </trkpt>
      <trkpt lat="36.804952" lon="-3.638989">
        <ele>461.1</ele>
        <time>2022-11-27T08:30:48Z</time>
      </trkpt>
      <trkpt lat="36.805207" lon="-3.638937">
        <ele>464.0</ele>
        <time>2022-11-27T08:31:15Z</time>
      </trkpt>
      <trkpt lat="36.805380" lon="-3.638753">
        <ele>475.0</ele>
        <time>2022-11-27T08:31:38Z</time>
      </trkpt>
      <trkpt lat="36.805530" lon="-3.638595">
        <ele>477.4</ele>
        <time>2022-11-27T08:32:04Z</time>
      </trkpt>
      <trkpt lat="36.805681" lon="-3.638436">
        <ele>483.2</ele>
        <time>2022-11-27T08:32:30Z</time>
      </trkpt>
      <trkpt lat="36.805849" lon="-3.638280">
        <ele>486.1</ele>
        <time>2022-11-27T08:32:52Z</time>
      </trkpt>
      <trkpt lat="36.806051" lon="-3.638228">
        <ele>490.4</ele>
        <time>2022-11-27T08:33:16Z</time>
      </trkpt>
      <trkpt lat="36.806265" lon="-3.638107">
        <ele>496.2</ele>
        <time>2022-11-27T08:33:43Z</time>
      </trkpt>
      <trkpt lat="36.806404" lon="-3.637921">
        <ele>502.4</ele>
        <time>2022-11-27T08:34:05Z</time>
      </trkpt>
      <trkpt lat="36.806601" lon="-3.637781">
        <ele>504.8</ele>
        <time>2022-11-27T08:34:27Z</time>
      </trkpt>
      <trkpt lat="36.806746" lon="-3.637914">
        <ele>509.2</ele>
        <time>2022-11-27T08:34:48Z</time>
      </trkpt>
      <trkpt lat="36.806803" lon="-3.638177">
        <ele>511.6</ele>
        <time>2022-11-27T08:35:11Z</time>
      </trkpt>
      <trkpt lat="36.806965" lon="-3.638342">
        <ele>516.8</ele>
        <time>2022-11-27T08:35:35Z</time>
      </trkpt>
      <trkpt lat="36.807121" lon="-3.638535">
        <ele>520.7</ele>
        <time>2022-11-27T08:35:57Z</time>
      </trkpt>
      <trkpt lat="36.807277" lon="-3.638715">
        <ele>523.1</ele>
        <time>2022-11-27T08:36:21Z</time>
      </trkpt>
      <trkpt lat="36.807465" lon="-3.638638">
        <ele>528.9</ele>
        <time>2022-11-27T08:36:47Z</time>
      </trkpt>
      <trkpt lat="36.807587" lon="-3.638421">
        <ele>530.8</ele>
        <time>2022-11-27T08:37:07Z</time>
      </trkpt>
      <trkpt lat="36.807634" lon="-3.638149">
        <ele>534.6</ele>
        <time>2022-11-27T08:37:28Z</time>
      </trkpt>
      <trkpt lat="36.807731" lon="-3.637931">
        <ele>538.5</ele>
        <time>2022-11-27T08:37:47Z</time>
      </trkpt>
      <trkpt lat="36.807846" lon="-3.637726">
        <ele>542.3</ele>
        <time>2022-11-27T08:38:09Z</time>
      </trkpt>
      <trkpt lat="36.808022" lon="-3.637566">
        <ele>547.1</ele>
        <time>2022-11-27T08:38:42Z</time>
      </trkpt>
      <trkpt lat="36.808132" lon="-3.637338">
        <ele>553.9</ele>
        <time>2022-11-27T08:39:05Z</time>
      </trkpt>
      <trkpt lat="36.808168" lon="-3.637123">
        <ele>554.8</ele>
        <time>2022-11-27T08:39:32Z</time>
      </trkpt>
      <trkpt lat="36.808104" lon="-3.636888">
        <ele>554.8</ele>
        <time>2022-11-27T08:39:50Z</time>
      </trkpt>
      <trkpt lat="36.808129" lon="-3.636615">
        <ele>555.3</ele>
        <time>2022-11-27T08:40:08Z</time>
      </trkpt>
      <trkpt lat="36.808160" lon="-3.636319">
        <ele>555.8</ele>
        <time>2022-11-27T08:40:26Z</time>
      </trkpt>
      <trkpt lat="36.808220" lon="-3.636054">
        <ele>556.3</ele>
        <time>2022-11-27T08:40:43Z</time>
      </trkpt>
      <trkpt lat="36.808330" lon="-3.635857">
        <ele>557.7</ele>
        <time>2022-11-27T08:40:58Z</time>
      </trkpt>
      <trkpt lat="36.808491" lon="-3.635693">
        <ele>558.7</ele>
        <time>2022-11-27T08:41:14Z</time>
      </trkpt>
      <trkpt lat="36.808674" lon="-3.635570">
        <ele>561.5</ele>
        <time>2022-11-27T08:41:31Z</time>
      </trkpt>
      <trkpt lat="36.808850" lon="-3.635406">
        <ele>563.5</ele>
        <time>2022-11-27T08:41:48Z</time>
      </trkpt>
      <trkpt lat="36.808902" lon="-3.635147">
        <ele>568.8</ele>
        <time>2022-11-27T08:42:05Z</time>
      </trkpt>
      <trkpt lat="36.809058" lon="-3.634979">
        <ele>572.6</ele>
        <time>2022-11-27T08:42:24Z</time>
      </trkpt>
      <trkpt lat="36.809274" lon="-3.634920">
        <ele>574.5</ele>
        <time>2022-11-27T08:42:45Z</time>
      </trkpt>
      <trkpt lat="36.809509" lon="-3.634954">
        <ele>576.9</ele>
        <time>2022-11-27T08:43:05Z</time>
      </trkpt>
      <trkpt lat="36.809739" lon="-3.634949">
        <ele>577.9</ele>
        <time>2022-11-27T08:43:24Z</time>
      </trkpt>
      <trkpt lat="36.809988" lon="-3.634818">
        <ele>579.8</ele>
        <time>2022-11-27T08:43:50Z</time>
      </trkpt>
      <trkpt lat="36.810275" lon="-3.634813">
        <ele>587.0</ele>
        <time>2022-11-27T08:44:18Z</time>
      </trkpt>
      <trkpt lat="36.810500" lon="-3.634793">
        <ele>591.3</ele>
        <time>2022-11-27T08:44:39Z</time>
      </trkpt>
      <trkpt lat="36.810715" lon="-3.634792">
        <ele>594.2</ele>
        <time>2022-11-27T08:45:00Z</time>
      </trkpt>
      <trkpt lat="36.810899" lon="-3.634789">
        <ele>598.1</ele>
        <time>2022-11-27T08:45:23Z</time>
      </trkpt>
      <trkpt lat="36.811083" lon="-3.634765">
        <ele>600.5</ele>
        <time>2022-11-27T08:45:40Z</time>
      </trkpt>
      <trkpt lat="36.811259" lon="-3.634691">
        <ele>601.4</ele>
        <time>2022-11-27T08:45:55Z</time>
      </trkpt>
      <trkpt lat="36.811418" lon="-3.634581">
        <ele>602.9</ele>
        <time>2022-11-27T08:46:10Z</time>
      </trkpt>
      <trkpt lat="36.811605" lon="-3.634547">
        <ele>606.7</ele>
        <time>2022-11-27T08:46:26Z</time>
      </trkpt>
      <trkpt lat="36.811789" lon="-3.634519">
        <ele>606.7</ele>
        <time>2022-11-27T08:46:42Z</time>
      </trkpt>
      <trkpt lat="36.811956" lon="-3.634429">
        <ele>609.6</ele>
        <time>2022-11-27T08:47:00Z</time>
      </trkpt>
      <trkpt lat="36.812117" lon="-3.634330">
        <ele>615.9</ele>
        <time>2022-11-27T08:47:22Z</time>
      </trkpt>
      <trkpt lat="36.812290" lon="-3.634251">
        <ele>622.1</ele>
        <time>2022-11-27T08:47:53Z</time>
      </trkpt>
      <trkpt lat="36.812459" lon="-3.634181">
        <ele>626.0</ele>
        <time>2022-11-27T08:48:17Z</time>
      </trkpt>
      <trkpt lat="36.812637" lon="-3.634172">
        <ele>630.8</ele>
        <time>2022-11-27T08:48:44Z</time>
      </trkpt>
      <trkpt lat="36.812810" lon="-3.634250">
        <ele>633.2</ele>
        <time>2022-11-27T08:49:02Z</time>
      </trkpt>
      <trkpt lat="36.812990" lon="-3.634232">
        <ele>633.2</ele>
        <time>2022-11-27T08:49:17Z</time>
      </trkpt>
      <trkpt lat="36.813175" lon="-3.634269">
        <ele>633.6</ele>
        <time>2022-11-27T08:49:33Z</time>
      </trkpt>
      <trkpt lat="36.813366" lon="-3.634346">
        <ele>633.6</ele>
        <time>2022-11-27T08:49:50Z</time>
      </trkpt>
      <trkpt lat="36.813500" lon="-3.634305">
        <ele>636.0</ele>
        <time>2022-11-27T08:51:11Z</time>
      </trkpt>
      <trkpt lat="36.813586" lon="-3.634113">
        <ele>635.6</ele>
        <time>2022-11-27T08:51:25Z</time>
      </trkpt>
      <trkpt lat="36.813726" lon="-3.633947">
        <ele>636.0</ele>
        <time>2022-11-27T08:51:41Z</time>
      </trkpt>
      <trkpt lat="36.813795" lon="-3.633705">
        <ele>638.0</ele>
        <time>2022-11-27T08:51:57Z</time>
      </trkpt>
      <trkpt lat="36.813860" lon="-3.633501">
        <ele>637.0</ele>
        <time>2022-11-27T08:52:11Z</time>
      </trkpt>
      <trkpt lat="36.813927" lon="-3.633286">
        <ele>638.0</ele>
        <time>2022-11-27T08:52:27Z</time>
      </trkpt>
      <trkpt lat="36.813939" lon="-3.633041">
        <ele>638.9</ele>
        <time>2022-11-27T08:52:41Z</time>
      </trkpt>
      <trkpt lat="36.813965" lon="-3.632809">
        <ele>640.4</ele>
        <time>2022-11-27T08:52:56Z</time>
      </trkpt>
      <trkpt lat="36.814060" lon="-3.632611">
        <ele>640.9</ele>
        <time>2022-11-27T08:53:11Z</time>
      </trkpt>
      <trkpt lat="36.814178" lon="-3.632404">
        <ele>641.8</ele>
        <time>2022-11-27T08:53:26Z</time>
      </trkpt>
      <trkpt lat="36.814291" lon="-3.632174">
        <ele>644.7</ele>
        <time>2022-11-27T08:53:42Z</time>
      </trkpt>
      <trkpt lat="36.814411" lon="-3.631974">
        <ele>644.2</ele>
        <time>2022-11-27T08:53:59Z</time>
      </trkpt>
      <trkpt lat="36.814533" lon="-3.631797">
        <ele>648.1</ele>
        <time>2022-11-27T08:54:14Z</time>
      </trkpt>
      <trkpt lat="36.814701" lon="-3.631688">
        <ele>649.5</ele>
        <time>2022-11-27T08:54:29Z</time>
      </trkpt>
      <trkpt lat="36.814891" lon="-3.631650">
        <ele>652.4</ele>
        <time>2022-11-27T08:54:44Z</time>
      </trkpt>
      <trkpt lat="36.815093" lon="-3.631640">
        <ele>654.8</ele>
        <time>2022-11-27T08:54:59Z</time>
      </trkpt>
      <trkpt lat="36.815293" lon="-3.631653">
        <ele>657.2</ele>
        <time>2022-11-27T08:55:15Z</time>
      </trkpt>
      <trkpt lat="36.815500" lon="-3.631645">
        <ele>655.8</ele>
        <time>2022-11-27T08:55:39Z</time>
      </trkpt>
      <trkpt lat="36.815647" lon="-3.631448">
        <ele>655.8</ele>
        <time>2022-11-27T08:56:17Z</time>
      </trkpt>
      <trkpt lat="36.815618" lon="-3.631589">
        <ele>657.2</ele>
        <time>2022-11-27T08:58:34Z</time>
      </trkpt>
      <trkpt lat="36.815758" lon="-3.631623">
        <ele>663.0</ele>
        <time>2022-11-27T09:00:07Z</time>
      </trkpt>
      <trkpt lat="36.815686" lon="-3.631648">
        <ele>663.9</ele>
        <time>2022-11-27T09:02:16Z</time>
      </trkpt>
      <trkpt lat="36.815735" lon="-3.631404">
        <ele>667.8</ele>
        <time>2022-11-27T09:08:17Z</time>
      </trkpt>
      <trkpt lat="36.815834" lon="-3.631294">
        <ele>666.3</ele>
        <time>2022-11-27T09:09:05Z</time>
      </trkpt>
      <trkpt lat="36.815918" lon="-3.631064">
        <ele>667.8</ele>
        <time>2022-11-27T09:09:21Z</time>
      </trkpt>
      <trkpt lat="36.816014" lon="-3.630843">
        <ele>670.2</ele>
        <time>2022-11-27T09:09:38Z</time>
      </trkpt>
      <trkpt lat="36.816135" lon="-3.630688">
        <ele>671.1</ele>
        <time>2022-11-27T09:09:53Z</time>
      </trkpt>
      <trkpt lat="36.816247" lon="-3.630625">
        <ele>669.7</ele>
        <time>2022-11-27T09:11:42Z</time>
      </trkpt>
      <trkpt lat="36.816393" lon="-3.630480">
        <ele>671.6</ele>
        <time>2022-11-27T09:11:57Z</time>
      </trkpt>
      <trkpt lat="36.816570" lon="-3.630394">
        <ele>675.0</ele>
        <time>2022-11-27T09:12:14Z</time>
      </trkpt>
      <trkpt lat="36.816785" lon="-3.630434">
        <ele>677.4</ele>
        <time>2022-11-27T09:12:32Z</time>
      </trkpt>
      <trkpt lat="36.816977" lon="-3.630545">
        <ele>679.3</ele>
        <time>2022-11-27T09:12:49Z</time>
      </trkpt>
      <trkpt lat="36.817147" lon="-3.630635">
        <ele>682.2</ele>
        <time>2022-11-27T09:13:05Z</time>
      </trkpt>
      <trkpt lat="36.817330" lon="-3.630580">
        <ele>683.6</ele>
        <time>2022-11-27T09:13:23Z</time>
      </trkpt>
      <trkpt lat="36.817528" lon="-3.630600">
        <ele>686.5</ele>
        <time>2022-11-27T09:13:39Z</time>
      </trkpt>
      <trkpt lat="36.817709" lon="-3.630600">
        <ele>687.0</ele>
        <time>2022-11-27T09:13:55Z</time>
      </trkpt>
      <trkpt lat="36.817894" lon="-3.630568">
        <ele>689.9</ele>
        <time>2022-11-27T09:14:11Z</time>
      </trkpt>
      <trkpt lat="36.818078" lon="-3.630599">
        <ele>691.3</ele>
        <time>2022-11-27T09:14:27Z</time>
      </trkpt>
      <trkpt lat="36.818235" lon="-3.630529">
        <ele>693.7</ele>
        <time>2022-11-27T09:15:04Z</time>
      </trkpt>
      <trkpt lat="36.818381" lon="-3.630403">
        <ele>693.7</ele>
        <time>2022-11-27T09:15:41Z</time>
      </trkpt>
      <trkpt lat="36.818391" lon="-3.630088">
        <ele>694.7</ele>
        <time>2022-11-27T09:16:03Z</time>
      </trkpt>
      <trkpt lat="36.818418" lon="-3.629663">
        <ele>697.1</ele>
        <time>2022-11-27T09:16:31Z</time>
      </trkpt>
      <trkpt lat="36.818565" lon="-3.629456">
        <ele>697.1</ele>
        <time>2022-11-27T09:16:57Z</time>
      </trkpt>
      <trkpt lat="36.818617" lon="-3.629412">
        <ele>698.5</ele>
        <time>2022-11-27T09:18:05Z</time>
      </trkpt>
      <trkpt lat="36.818652" lon="-3.629105">
        <ele>703.8</ele>
        <time>2022-11-27T09:19:39Z</time>
      </trkpt>
      <trkpt lat="36.818847" lon="-3.629075">
        <ele>703.3</ele>
        <time>2022-11-27T09:20:02Z</time>
      </trkpt>
      <trkpt lat="36.818988" lon="-3.628849">
        <ele>704.8</ele>
        <time>2022-11-27T09:21:49Z</time>
      </trkpt>
      <trkpt lat="36.818666" lon="-3.629130">
        <ele>703.3</ele>
        <time>2022-11-27T09:24:18Z</time>
      </trkpt>
      <trkpt lat="36.818616" lon="-3.629353">
        <ele>700.5</ele>
        <time>2022-11-27T09:25:04Z</time>
      </trkpt>
      <trkpt lat="36.818477" lon="-3.629551">
        <ele>698.1</ele>
        <time>2022-11-27T09:25:25Z</time>
      </trkpt>
      <trkpt lat="36.818399" lon="-3.630003">
        <ele>696.6</ele>
        <time>2022-11-27T09:25:56Z</time>
      </trkpt>
      <trkpt lat="36.818415" lon="-3.630307">
        <ele>695.7</ele>
        <time>2022-11-27T09:26:15Z</time>
      </trkpt>
      <trkpt lat="36.818262" lon="-3.630562">
        <ele>695.2</ele>
        <time>2022-11-27T09:26:34Z</time>
      </trkpt>
      <trkpt lat="36.818036" lon="-3.630635">
        <ele>692.8</ele>
        <time>2022-11-27T09:26:55Z</time>
      </trkpt>
      <trkpt lat="36.817798" lon="-3.630604">
        <ele>691.3</ele>
        <time>2022-11-27T09:27:12Z</time>
      </trkpt>
      <trkpt lat="36.817551" lon="-3.630654">
        <ele>688.0</ele>
        <time>2022-11-27T09:27:30Z</time>
      </trkpt>
      <trkpt lat="36.817336" lon="-3.630610">
        <ele>686.5</ele>
        <time>2022-11-27T09:27:46Z</time>
      </trkpt>
      <trkpt lat="36.817128" lon="-3.630645">
        <ele>684.6</ele>
        <time>2022-11-27T09:28:02Z</time>
      </trkpt>
      <trkpt lat="36.816944" lon="-3.630541">
        <ele>683.6</ele>
        <time>2022-11-27T09:28:17Z</time>
      </trkpt>
      <trkpt lat="36.816752" lon="-3.630440">
        <ele>680.8</ele>
        <time>2022-11-27T09:28:34Z</time>
      </trkpt>
      <trkpt lat="36.816529" lon="-3.630407">
        <ele>678.8</ele>
        <time>2022-11-27T09:28:50Z</time>
      </trkpt>
      <trkpt lat="36.816216" lon="-3.630651">
        <ele>673.5</ele>
        <time>2022-11-27T09:29:19Z</time>
      </trkpt>
      <trkpt lat="36.816045" lon="-3.630917">
        <ele>674.0</ele>
        <time>2022-11-27T09:29:39Z</time>
      </trkpt>
      <trkpt lat="36.815869" lon="-3.631165">
        <ele>670.2</ele>
        <time>2022-11-27T09:29:59Z</time>
      </trkpt>
      <trkpt lat="36.815740" lon="-3.631615">
        <ele>670.2</ele>
        <time>2022-11-27T09:30:29Z</time>
      </trkpt>
      <trkpt lat="36.815879" lon="-3.631801">
        <ele>680.3</ele>
        <time>2022-11-27T09:30:57Z</time>
      </trkpt>
      <trkpt lat="36.815946" lon="-3.631625">
        <ele>681.7</ele>
        <time>2022-11-27T09:31:20Z</time>
      </trkpt>
      <trkpt lat="36.816136" lon="-3.631426">
        <ele>684.6</ele>
        <time>2022-11-27T09:31:54Z</time>
      </trkpt>
      <trkpt lat="36.816299" lon="-3.631287">
        <ele>686.5</ele>
        <time>2022-11-27T09:32:18Z</time>
      </trkpt>
      <trkpt lat="36.817042" lon="-3.631396">
        <ele>713.9</ele>
        <time>2022-11-27T09:35:17Z</time>
      </trkpt>
      <trkpt lat="36.817187" lon="-3.631396">
        <ele>720.2</ele>
        <time>2022-11-27T09:36:13Z</time>
      </trkpt>
      <trkpt lat="36.817094" lon="-3.631642">
        <ele>725.5</ele>
        <time>2022-11-27T09:36:37Z</time>
      </trkpt>
      <trkpt lat="36.816989" lon="-3.631928">
        <ele>726.4</ele>
        <time>2022-11-27T09:37:09Z</time>
      </trkpt>
      <trkpt lat="36.816966" lon="-3.632173">
        <ele>730.3</ele>
        <time>2022-11-27T09:37:30Z</time>
      </trkpt>
      <trkpt lat="36.817023" lon="-3.632423">
        <ele>734.1</ele>
        <time>2022-11-27T09:38:09Z</time>
      </trkpt>
      <trkpt lat="36.817123" lon="-3.632617">
        <ele>737.0</ele>
        <time>2022-11-27T09:38:32Z</time>
      </trkpt>
      <trkpt lat="36.817360" lon="-3.632828">
        <ele>742.8</ele>
        <time>2022-11-27T09:39:22Z</time>
      </trkpt>
      <trkpt lat="36.817614" lon="-3.632941">
        <ele>745.6</ele>
        <time>2022-11-27T09:39:52Z</time>
      </trkpt>
      <trkpt lat="36.817857" lon="-3.632825">
        <ele>752.4</ele>
        <time>2022-11-27T09:40:58Z</time>
      </trkpt>
      <trkpt lat="36.818171" lon="-3.632770">
        <ele>757.7</ele>
        <time>2022-11-27T09:42:08Z</time>
      </trkpt>
      <trkpt lat="36.818384" lon="-3.632823">
        <ele>761.0</ele>
        <time>2022-11-27T09:42:33Z</time>
      </trkpt>
      <trkpt lat="36.818609" lon="-3.632736">
        <ele>765.8</ele>
        <time>2022-11-27T09:43:01Z</time>
      </trkpt>
      <trkpt lat="36.818837" lon="-3.632670">
        <ele>769.2</ele>
        <time>2022-11-27T09:43:28Z</time>
      </trkpt>
      <trkpt lat="36.819056" lon="-3.632554">
        <ele>772.6</ele>
        <time>2022-11-27T09:44:23Z</time>
      </trkpt>
      <trkpt lat="36.819263" lon="-3.632472">
        <ele>777.8</ele>
        <time>2022-11-27T09:44:47Z</time>
      </trkpt>
      <trkpt lat="36.819508" lon="-3.632446">
        <ele>782.7</ele>
        <time>2022-11-27T09:45:13Z</time>
      </trkpt>
      <trkpt lat="36.819761" lon="-3.632503">
        <ele>786.0</ele>
        <time>2022-11-27T09:45:40Z</time>
      </trkpt>
      <trkpt lat="36.819693" lon="-3.632402">
        <ele>790.8</ele>
        <time>2022-11-27T09:46:27Z</time>
      </trkpt>
      <trkpt lat="36.819516" lon="-3.632277">
        <ele>796.1</ele>
        <time>2022-11-27T09:46:51Z</time>
      </trkpt>
      <trkpt lat="36.819325" lon="-3.632131">
        <ele>797.1</ele>
        <time>2022-11-27T09:47:15Z</time>
      </trkpt>
      <trkpt lat="36.819179" lon="-3.631950">
        <ele>800.9</ele>
        <time>2022-11-27T09:47:36Z</time>
      </trkpt>
      <trkpt lat="36.819241" lon="-3.631744">
        <ele>803.8</ele>
        <time>2022-11-27T09:47:56Z</time>
      </trkpt>
      <trkpt lat="36.819378" lon="-3.631578">
        <ele>806.7</ele>
        <time>2022-11-27T09:48:17Z</time>
      </trkpt>
      <trkpt lat="36.819521" lon="-3.631489">
        <ele>808.1</ele>
        <time>2022-11-27T09:49:39Z</time>
      </trkpt>
      <trkpt lat="36.819686" lon="-3.631389">
        <ele>809.6</ele>
        <time>2022-11-27T09:50:05Z</time>
      </trkpt>
      <trkpt lat="36.819904" lon="-3.631357">
        <ele>821.1</ele>
        <time>2022-11-27T09:50:42Z</time>
      </trkpt>
      <trkpt lat="36.820116" lon="-3.631322">
        <ele>827.8</ele>
        <time>2022-11-27T09:51:20Z</time>
      </trkpt>
      <trkpt lat="36.820290" lon="-3.631232">
        <ele>832.2</ele>
        <time>2022-11-27T09:51:48Z</time>
      </trkpt>
      <trkpt lat="36.820457" lon="-3.631211">
        <ele>837.4</ele>
        <time>2022-11-27T09:52:36Z</time>
      </trkpt>
      <trkpt lat="36.820672" lon="-3.631263">
        <ele>843.2</ele>
        <time>2022-11-27T09:53:08Z</time>
      </trkpt>
      <trkpt lat="36.820837" lon="-3.631268">
        <ele>847.5</ele>
        <time>2022-11-27T09:54:48Z</time>
      </trkpt>
      <trkpt lat="36.820955" lon="-3.631467">
        <ele>851.4</ele>
        <time>2022-11-27T09:55:46Z</time>
      </trkpt>
      <trkpt lat="36.821037" lon="-3.631679">
        <ele>856.2</ele>
        <time>2022-11-27T09:56:18Z</time>
      </trkpt>
      <trkpt lat="36.821051" lon="-3.631912">
        <ele>857.2</ele>
        <time>2022-11-27T09:56:39Z</time>
      </trkpt>
      <trkpt lat="36.821145" lon="-3.631840">
        <ele>860.5</ele>
        <time>2022-11-27T09:57:04Z</time>
      </trkpt>
      <trkpt lat="36.821236" lon="-3.631641">
        <ele>864.8</ele>
        <time>2022-11-27T09:57:24Z</time>
      </trkpt>
      <trkpt lat="36.821349" lon="-3.631458">
        <ele>867.2</ele>
        <time>2022-11-27T09:57:45Z</time>
      </trkpt>
      <trkpt lat="36.821549" lon="-3.631384">
        <ele>871.1</ele>
        <time>2022-11-27T09:58:09Z</time>
      </trkpt>
      <trkpt lat="36.821520" lon="-3.631539">
        <ele>876.9</ele>
        <time>2022-11-27T09:58:38Z</time>
      </trkpt>
      <trkpt lat="36.821518" lon="-3.631775">
        <ele>879.3</ele>
        <time>2022-11-27T09:59:02Z</time>
      </trkpt>
      <trkpt lat="36.821499" lon="-3.632029">
        <ele>883.1</ele>
        <time>2022-11-27T09:59:27Z</time>
      </trkpt>
      <trkpt lat="36.821479" lon="-3.632272">
        <ele>887.4</ele>
        <time>2022-11-27T09:59:51Z</time>
      </trkpt>
      <trkpt lat="36.821565" lon="-3.632252">
        <ele>889.4</ele>
        <time>2022-11-27T10:00:17Z</time>
      </trkpt>
      <trkpt lat="36.821699" lon="-3.632088">
        <ele>892.2</ele>
        <time>2022-11-27T10:01:15Z</time>
      </trkpt>
      <trkpt lat="36.821860" lon="-3.631959">
        <ele>896.6</ele>
        <time>2022-11-27T10:01:37Z</time>
      </trkpt>
      <trkpt lat="36.822018" lon="-3.631837">
        <ele>899.9</ele>
        <time>2022-11-27T10:01:58Z</time>
      </trkpt>
      <trkpt lat="36.821987" lon="-3.631998">
        <ele>903.8</ele>
        <time>2022-11-27T10:02:30Z</time>
      </trkpt>
      <trkpt lat="36.821927" lon="-3.632214">
        <ele>907.6</ele>
        <time>2022-11-27T10:02:56Z</time>
      </trkpt>
      <trkpt lat="36.821899" lon="-3.632451">
        <ele>908.1</ele>
        <time>2022-11-27T10:03:19Z</time>
      </trkpt>
      <trkpt lat="36.821934" lon="-3.632692">
        <ele>913.4</ele>
        <time>2022-11-27T10:03:42Z</time>
      </trkpt>
      <trkpt lat="36.822042" lon="-3.632820">
        <ele>915.3</ele>
        <time>2022-11-27T10:04:07Z</time>
      </trkpt>
      <trkpt lat="36.822107" lon="-3.632604">
        <ele>918.7</ele>
        <time>2022-11-27T10:04:33Z</time>
      </trkpt>
      <trkpt lat="36.822227" lon="-3.632422">
        <ele>922.0</ele>
        <time>2022-11-27T10:04:57Z</time>
      </trkpt>
      <trkpt lat="36.822359" lon="-3.632294">
        <ele>929.3</ele>
        <time>2022-11-27T10:05:59Z</time>
      </trkpt>
      <trkpt lat="36.822536" lon="-3.632196">
        <ele>929.7</ele>
        <time>2022-11-27T10:06:27Z</time>
      </trkpt>
      <trkpt lat="36.822706" lon="-3.632176">
        <ele>933.6</ele>
        <time>2022-11-27T10:08:46Z</time>
      </trkpt>
      <trkpt lat="36.822936" lon="-3.632156">
        <ele>936.9</ele>
        <time>2022-11-27T10:09:31Z</time>
      </trkpt>
      <trkpt lat="36.823206" lon="-3.632076">
        <ele>941.3</ele>
        <time>2022-11-27T10:10:52Z</time>
      </trkpt>
      <trkpt lat="36.823202" lon="-3.632194">
        <ele>947.0</ele>
        <time>2022-11-27T10:11:27Z</time>
      </trkpt>
      <trkpt lat="36.823047" lon="-3.632343">
        <ele>953.3</ele>
        <time>2022-11-27T10:11:49Z</time>
      </trkpt>
      <trkpt lat="36.823203" lon="-3.632332">
        <ele>953.3</ele>
        <time>2022-11-27T10:12:31Z</time>
      </trkpt>
      <trkpt lat="36.823409" lon="-3.632281">
        <ele>956.2</ele>
        <time>2022-11-27T10:13:21Z</time>
      </trkpt>
      <trkpt lat="36.823604" lon="-3.632278">
        <ele>959.5</ele>
        <time>2022-11-27T10:13:40Z</time>
      </trkpt>
      <trkpt lat="36.823792" lon="-3.632294">
        <ele>960.0</ele>
        <time>2022-11-27T10:13:58Z</time>
      </trkpt>
      <trkpt lat="36.823996" lon="-3.632304">
        <ele>960.5</ele>
        <time>2022-11-27T10:14:17Z</time>
      </trkpt>
      <trkpt lat="36.824183" lon="-3.632322">
        <ele>962.4</ele>
        <time>2022-11-27T10:14:34Z</time>
      </trkpt>
      <trkpt lat="36.824372" lon="-3.632331">
        <ele>961.9</ele>
        <time>2022-11-27T10:14:51Z</time>
      </trkpt>
      <trkpt lat="36.824568" lon="-3.632383">
        <ele>964.3</ele>
        <time>2022-11-27T10:15:08Z</time>
      </trkpt>
      <trkpt lat="36.824691" lon="-3.632540">
        <ele>964.3</ele>
        <time>2022-11-27T10:15:24Z</time>
      </trkpt>
      <trkpt lat="36.824794" lon="-3.632740">
        <ele>965.8</ele>
        <time>2022-11-27T10:15:42Z</time>
      </trkpt>
      <trkpt lat="36.824945" lon="-3.632893">
        <ele>966.3</ele>
        <time>2022-11-27T10:16:00Z</time>
      </trkpt>
      <trkpt lat="36.825105" lon="-3.633017">
        <ele>967.7</ele>
        <time>2022-11-27T10:17:09Z</time>
      </trkpt>
      <trkpt lat="36.825256" lon="-3.632912">
        <ele>968.7</ele>
        <time>2022-11-27T10:17:35Z</time>
      </trkpt>
      <trkpt lat="36.825419" lon="-3.632782">
        <ele>968.7</ele>
        <time>2022-11-27T10:17:51Z</time>
      </trkpt>
      <trkpt lat="36.825563" lon="-3.632643">
        <ele>970.1</ele>
        <time>2022-11-27T10:18:07Z</time>
      </trkpt>
      <trkpt lat="36.825702" lon="-3.632480">
        <ele>971.1</ele>
        <time>2022-11-27T10:18:51Z</time>
      </trkpt>
      <trkpt lat="36.825849" lon="-3.632337">
        <ele>970.6</ele>
        <time>2022-11-27T10:19:06Z</time>
      </trkpt>
      <trkpt lat="36.825996" lon="-3.632183">
        <ele>972.0</ele>
        <time>2022-11-27T10:19:21Z</time>
      </trkpt>
      <trkpt lat="36.826111" lon="-3.632007">
        <ele>973.0</ele>
        <time>2022-11-27T10:19:36Z</time>
      </trkpt>
      <trkpt lat="36.826194" lon="-3.631836">
        <ele>973.5</ele>
        <time>2022-11-27T10:21:41Z</time>
      </trkpt>
      <trkpt lat="36.826314" lon="-3.631657">
        <ele>974.9</ele>
        <time>2022-11-27T10:21:59Z</time>
      </trkpt>
      <trkpt lat="36.826454" lon="-3.631486">
        <ele>975.4</ele>
        <time>2022-11-27T10:22:16Z</time>
      </trkpt>
      <trkpt lat="36.826574" lon="-3.631305">
        <ele>977.3</ele>
        <time>2022-11-27T10:22:32Z</time>
      </trkpt>
      <trkpt lat="36.826705" lon="-3.631151">
        <ele>978.8</ele>
        <time>2022-11-27T10:22:48Z</time>
      </trkpt>
      <trkpt lat="36.826793" lon="-3.630955">
        <ele>981.6</ele>
        <time>2022-11-27T10:23:05Z</time>
      </trkpt>
      <trkpt lat="36.826810" lon="-3.630718">
        <ele>981.2</ele>
        <time>2022-11-27T10:23:23Z</time>
      </trkpt>
      <trkpt lat="36.826864" lon="-3.630499">
        <ele>983.1</ele>
        <time>2022-11-27T10:23:39Z</time>
      </trkpt>
      <trkpt lat="36.826967" lon="-3.630321">
        <ele>983.1</ele>
        <time>2022-11-27T10:24:12Z</time>
      </trkpt>
      <trkpt lat="36.826953" lon="-3.630161">
        <ele>983.6</ele>
        <time>2022-11-27T10:26:22Z</time>
      </trkpt>
      <trkpt lat="36.827001" lon="-3.629952">
        <ele>983.6</ele>
        <time>2022-11-27T10:26:58Z</time>
      </trkpt>
      <trkpt lat="36.827055" lon="-3.629738">
        <ele>983.6</ele>
        <time>2022-11-27T10:27:28Z</time>
      </trkpt>
      <trkpt lat="36.827125" lon="-3.629519">
        <ele>984.5</ele>
        <time>2022-11-27T10:27:53Z</time>
      </trkpt>
      <trkpt lat="36.827190" lon="-3.629267">
        <ele>993.2</ele>
        <time>2022-11-27T10:28:27Z</time>
      </trkpt>
      <trkpt lat="36.827186" lon="-3.629133">
        <ele>993.2</ele>
        <time>2022-11-27T10:31:54Z</time>
      </trkpt>
      <trkpt lat="36.827186" lon="-3.629219">
        <ele>992.7</ele>
        <time>2022-11-27T10:37:47Z</time>
      </trkpt>
      <trkpt lat="36.827147" lon="-3.629441">
        <ele>989.3</ele>
        <time>2022-11-27T10:38:54Z</time>
      </trkpt>
      <trkpt lat="36.827144" lon="-3.629632">
        <ele>985.5</ele>
        <time>2022-11-27T10:39:15Z</time>
      </trkpt>
      <trkpt lat="36.827102" lon="-3.629846">
        <ele>982.1</ele>
        <time>2022-11-27T10:39:37Z</time>
      </trkpt>
      <trkpt lat="36.827148" lon="-3.630028">
        <ele>981.6</ele>
        <time>2022-11-27T10:40:00Z</time>
      </trkpt>
      <trkpt lat="36.827024" lon="-3.630231">
        <ele>985.5</ele>
        <time>2022-11-27T10:40:23Z</time>
      </trkpt>
      <trkpt lat="36.826971" lon="-3.630456">
        <ele>987.9</ele>
        <time>2022-11-27T10:40:50Z</time>
      </trkpt>
      <trkpt lat="36.826907" lon="-3.630709">
        <ele>988.4</ele>
        <time>2022-11-27T10:41:19Z</time>
      </trkpt>
      <trkpt lat="36.826956" lon="-3.630955">
        <ele>989.8</ele>
        <time>2022-11-27T10:41:46Z</time>
      </trkpt>
      <trkpt lat="36.827019" lon="-3.631188">
        <ele>998.5</ele>
        <time>2022-11-27T10:42:13Z</time>
      </trkpt>
      <trkpt lat="36.826933" lon="-3.631467">
        <ele>996.1</ele>
        <time>2022-11-27T10:43:03Z</time>
      </trkpt>
      <trkpt lat="36.826867" lon="-3.631704">
        <ele>999.4</ele>
        <time>2022-11-27T10:43:31Z</time>
      </trkpt>
      <trkpt lat="36.826763" lon="-3.631892">
        <ele>1002.3</ele>
        <time>2022-11-27T10:44:03Z</time>
      </trkpt>
      <trkpt lat="36.826717" lon="-3.632130">
        <ele>1006.2</ele>
        <time>2022-11-27T10:44:25Z</time>
      </trkpt>
      <trkpt lat="36.826671" lon="-3.632389">
        <ele>1007.1</ele>
        <time>2022-11-27T10:44:56Z</time>
      </trkpt>
      <trkpt lat="36.826636" lon="-3.632641">
        <ele>1009.5</ele>
        <time>2022-11-27T10:45:24Z</time>
      </trkpt>
      <trkpt lat="36.826575" lon="-3.632863">
        <ele>1012.4</ele>
        <time>2022-11-27T10:47:12Z</time>
      </trkpt>
      <trkpt lat="36.826500" lon="-3.633116">
        <ele>1020.1</ele>
        <time>2022-11-27T10:47:57Z</time>
      </trkpt>
      <trkpt lat="36.826448" lon="-3.633349">
        <ele>1024.9</ele>
        <time>2022-11-27T10:49:14Z</time>
      </trkpt>
      <trkpt lat="36.826357" lon="-3.633602">
        <ele>1031.6</ele>
        <time>2022-11-27T10:50:06Z</time>
      </trkpt>
      <trkpt lat="36.826301" lon="-3.633835">
        <ele>1034.5</ele>
        <time>2022-11-27T10:51:53Z</time>
      </trkpt>
      <trkpt lat="36.826226" lon="-3.634059">
        <ele>1044.1</ele>
        <time>2022-11-27T10:52:28Z</time>
      </trkpt>
      <trkpt lat="36.826169" lon="-3.634273">
        <ele>1048.5</ele>
        <time>2022-11-27T10:53:01Z</time>
      </trkpt>
      <trkpt lat="36.826071" lon="-3.634509">
        <ele>1054.7</ele>
        <time>2022-11-27T10:54:27Z</time>
      </trkpt>
      <trkpt lat="36.825974" lon="-3.634726">
        <ele>1059.5</ele>
        <time>2022-11-27T10:55:17Z</time>
      </trkpt>
      <trkpt lat="36.825862" lon="-3.634920">
        <ele>1063.4</ele>
        <time>2022-11-27T10:55:49Z</time>
      </trkpt>
      <trkpt lat="36.825754" lon="-3.635180">
        <ele>1071.0</ele>
        <time>2022-11-27T10:56:40Z</time>
      </trkpt>
      <trkpt lat="36.825605" lon="-3.635378">
        <ele>1074.4</ele>
        <time>2022-11-27T10:58:11Z</time>
      </trkpt>
      <trkpt lat="36.825475" lon="-3.635558">
        <ele>1086.9</ele>
        <time>2022-11-27T10:59:00Z</time>
      </trkpt>
      <trkpt lat="36.825354" lon="-3.635776">
        <ele>1093.6</ele>
        <time>2022-11-27T11:00:02Z</time>
      </trkpt>
      <trkpt lat="36.825209" lon="-3.635993">
        <ele>1104.7</ele>
        <time>2022-11-27T11:01:17Z</time>
      </trkpt>
      <trkpt lat="36.825177" lon="-3.636137">
        <ele>1105.7</ele>
        <time>2022-11-27T11:04:50Z</time>
      </trkpt>
      <trkpt lat="36.825224" lon="-3.636406">
        <ele>1113.8</ele>
        <time>2022-11-27T11:05:36Z</time>
      </trkpt>
      <trkpt lat="36.825254" lon="-3.636671">
        <ele>1121.5</ele>
        <time>2022-11-27T11:06:27Z</time>
      </trkpt>
      <trkpt lat="36.825265" lon="-3.636873">
        <ele>1126.8</ele>
        <time>2022-11-27T11:07:54Z</time>
      </trkpt>
      <trkpt lat="36.825261" lon="-3.637138">
        <ele>1135.5</ele>
        <time>2022-11-27T11:08:41Z</time>
      </trkpt>
      <trkpt lat="36.825300" lon="-3.637320">
        <ele>1136.4</ele>
        <time>2022-11-27T11:13:43Z</time>
      </trkpt>
      <trkpt lat="36.825292" lon="-3.637577">
        <ele>1144.6</ele>
        <time>2022-11-27T11:14:16Z</time>
      </trkpt>
      <trkpt lat="36.825264" lon="-3.637816">
        <ele>1146.5</ele>
        <time>2022-11-27T11:15:14Z</time>
      </trkpt>
      <trkpt lat="36.825169" lon="-3.638032">
        <ele>1149.9</ele>
        <time>2022-11-27T11:15:56Z</time>
      </trkpt>
      <trkpt lat="36.825136" lon="-3.638305">
        <ele>1158.5</ele>
        <time>2022-11-27T11:16:38Z</time>
      </trkpt>
      <trkpt lat="36.825107" lon="-3.638545">
        <ele>1161.9</ele>
        <time>2022-11-27T11:17:08Z</time>
      </trkpt>
      <trkpt lat="36.825105" lon="-3.638792">
        <ele>1166.7</ele>
        <time>2022-11-27T11:17:38Z</time>
      </trkpt>
      <trkpt lat="36.825144" lon="-3.639047">
        <ele>1168.1</ele>
        <time>2022-11-27T11:18:11Z</time>
      </trkpt>
      <trkpt lat="36.825157" lon="-3.639290">
        <ele>1171.5</ele>
        <time>2022-11-27T11:18:43Z</time>
      </trkpt>
      <trkpt lat="36.825174" lon="-3.639557">
        <ele>1177.8</ele>
        <time>2022-11-27T11:19:16Z</time>
      </trkpt>
      <trkpt lat="36.825175" lon="-3.639815">
        <ele>1182.1</ele>
        <time>2022-11-27T11:20:02Z</time>
      </trkpt>
      <trkpt lat="36.825170" lon="-3.640030">
        <ele>1185.9</ele>
        <time>2022-11-27T11:20:29Z</time>
      </trkpt>
      <trkpt lat="36.825124" lon="-3.640247">
        <ele>1189.8</ele>
        <time>2022-11-27T11:21:07Z</time>
      </trkpt>
      <trkpt lat="36.825102" lon="-3.640509">
        <ele>1189.8</ele>
        <time>2022-11-27T11:21:34Z</time>
      </trkpt>
      <trkpt lat="36.825100" lon="-3.640554">
        <ele>1191.2</ele>
        <time>2022-11-27T11:23:43Z</time>
      </trkpt>
      <trkpt lat="36.825131" lon="-3.640574">
        <ele>1190.2</ele>
        <time>2022-11-27T11:25:11Z</time>
      </trkpt>
      <trkpt lat="36.825107" lon="-3.640556">
        <ele>1191.2</ele>
        <time>2022-11-27T11:28:11Z</time>
      </trkpt>
      <trkpt lat="36.825147" lon="-3.640678">
        <ele>1189.8</ele>
        <time>2022-11-27T11:30:18Z</time>
      </trkpt>
      <trkpt lat="36.825215" lon="-3.640871">
        <ele>1186.9</ele>
        <time>2022-11-27T11:31:03Z</time>
      </trkpt>
      <trkpt lat="36.825192" lon="-3.641083">
        <ele>1185.4</ele>
        <time>2022-11-27T11:32:14Z</time>
      </trkpt>
      <trkpt lat="36.825213" lon="-3.641321">
        <ele>1189.8</ele>
        <time>2022-11-27T11:32:44Z</time>
      </trkpt>
      <trkpt lat="36.825289" lon="-3.641484">
        <ele>1187.4</ele>
        <time>2022-11-27T11:33:56Z</time>
      </trkpt>
      <trkpt lat="36.825202" lon="-3.641692">
        <ele>1191.2</ele>
        <time>2022-11-27T11:34:26Z</time>
      </trkpt>
      <trkpt lat="36.825183" lon="-3.641867">
        <ele>1192.7</ele>
        <time>2022-11-27T11:35:02Z</time>
      </trkpt>
      <trkpt lat="36.825153" lon="-3.642091">
        <ele>1190.7</ele>
        <time>2022-11-27T11:35:27Z</time>
      </trkpt>
      <trkpt lat="36.825091" lon="-3.642314">
        <ele>1190.7</ele>
        <time>2022-11-27T11:35:50Z</time>
      </trkpt>
      <trkpt lat="36.825129" lon="-3.642576">
        <ele>1197.5</ele>
        <time>2022-11-27T11:36:19Z</time>
      </trkpt>
      <trkpt lat="36.825134" lon="-3.642634">
        <ele>1194.6</ele>
        <time>2022-11-27T11:40:06Z</time>
      </trkpt>
      <trkpt lat="36.825129" lon="-3.642749">
        <ele>1195.1</ele>
        <time>2022-11-27T11:43:04Z</time>
      </trkpt>
      <trkpt lat="36.825130" lon="-3.642963">
        <ele>1194.6</ele>
        <time>2022-11-27T11:44:14Z</time>
      </trkpt>
      <trkpt lat="36.825111" lon="-3.643187">
        <ele>1190.2</ele>
        <time>2022-11-27T11:44:49Z</time>
      </trkpt>
      <trkpt lat="36.825035" lon="-3.643250">
        <ele>1183.5</ele>
        <time>2022-11-27T11:47:56Z</time>
      </trkpt>
      <trkpt lat="36.824938" lon="-3.643145">
        <ele>1183.0</ele>
        <time>2022-11-27T11:50:17Z</time>
      </trkpt>
      <trkpt lat="36.824955" lon="-3.643183">
        <ele>1182.6</ele>
        <time>2022-11-27T11:53:01Z</time>
      </trkpt>
      <trkpt lat="36.825087" lon="-3.643335">
        <ele>1186.4</ele>
        <time>2022-11-27T11:54:11Z</time>
      </trkpt>
      <trkpt lat="36.825081" lon="-3.643509">
        <ele>1179.7</ele>
        <time>2022-11-27T11:55:02Z</time>
      </trkpt>
      <trkpt lat="36.825099" lon="-3.643603">
        <ele>1171.5</ele>
        <time>2022-11-27T11:55:59Z</time>
      </trkpt>
      <trkpt lat="36.825122" lon="-3.643669">
        <ele>1169.1</ele>
        <time>2022-11-27T11:56:43Z</time>
      </trkpt>
      <trkpt lat="36.825112" lon="-3.643858">
        <ele>1164.3</ele>
        <time>2022-11-27T11:57:10Z</time>
      </trkpt>
      <trkpt lat="36.825141" lon="-3.644083">
        <ele>1158.5</ele>
        <time>2022-11-27T11:57:46Z</time>
      </trkpt>
      <trkpt lat="36.825136" lon="-3.644314">
        <ele>1160.4</ele>
        <time>2022-11-27T11:58:07Z</time>
      </trkpt>
      <trkpt lat="36.825130" lon="-3.644540">
        <ele>1155.2</ele>
        <time>2022-11-27T11:58:44Z</time>
      </trkpt>
      <trkpt lat="36.825093" lon="-3.644722">
        <ele>1151.8</ele>
        <time>2022-11-27T11:59:55Z</time>
      </trkpt>
      <trkpt lat="36.825138" lon="-3.644963">
        <ele>1146.5</ele>
        <time>2022-11-27T12:00:30Z</time>
      </trkpt>
      <trkpt lat="36.825137" lon="-3.645265">
        <ele>1151.8</ele>
        <time>2022-11-27T12:01:52Z</time>
      </trkpt>
      <trkpt lat="36.825168" lon="-3.645488">
        <ele>1148.4</ele>
        <time>2022-11-27T12:02:21Z</time>
      </trkpt>
      <trkpt lat="36.825075" lon="-3.645604">
        <ele>1141.2</ele>
        <time>2022-11-27T12:03:23Z</time>
      </trkpt>
      <trkpt lat="36.825100" lon="-3.645810">
        <ele>1135.5</ele>
        <time>2022-11-27T12:04:40Z</time>
      </trkpt>
      <trkpt lat="36.825164" lon="-3.646014">
        <ele>1142.2</ele>
        <time>2022-11-27T12:05:57Z</time>
      </trkpt>
      <trkpt lat="36.825217" lon="-3.646197">
        <ele>1146.5</ele>
        <time>2022-11-27T12:06:27Z</time>
      </trkpt>
      <trkpt lat="36.825211" lon="-3.646394">
        <ele>1152.8</ele>
        <time>2022-11-27T12:07:52Z</time>
      </trkpt>
      <trkpt lat="36.825099" lon="-3.646551">
        <ele>1157.6</ele>
        <time>2022-11-27T12:09:12Z</time>
      </trkpt>
      <trkpt lat="36.825050" lon="-3.646676">
        <ele>1156.1</ele>
        <time>2022-11-27T12:10:57Z</time>
      </trkpt>
      <trkpt lat="36.824993" lon="-3.646864">
        <ele>1160.9</ele>
        <time>2022-11-27T12:11:36Z</time>
      </trkpt>
      <trkpt lat="36.824970" lon="-3.647089">
        <ele>1168.6</ele>
        <time>2022-11-27T12:12:30Z</time>
      </trkpt>
      <trkpt lat="36.825035" lon="-3.647273">
        <ele>1173.9</ele>
        <time>2022-11-27T12:13:27Z</time>
      </trkpt>
      <trkpt lat="36.825134" lon="-3.647366">
        <ele>1175.8</ele>
        <time>2022-11-27T12:15:05Z</time>
      </trkpt>
      <trkpt lat="36.825296" lon="-3.647438">
        <ele>1177.3</ele>
        <time>2022-11-27T12:15:36Z</time>
      </trkpt>
      <trkpt lat="36.825302" lon="-3.647435">
        <ele>1177.3</ele>
        <time>2022-11-27T12:17:18Z</time>
      </trkpt>
      <trkpt lat="36.825177" lon="-3.647428">
        <ele>1175.3</ele>
        <time>2022-11-27T12:17:51Z</time>
      </trkpt>
      <trkpt lat="36.825158" lon="-3.647551">
        <ele>1167.2</ele>
        <time>2022-11-27T12:18:51Z</time>
      </trkpt>
      <trkpt lat="36.824993" lon="-3.647690">
        <ele>1162.4</ele>
        <time>2022-11-27T12:19:38Z</time>
      </trkpt>
      <trkpt lat="36.824875" lon="-3.647721">
        <ele>1162.9</ele>
        <time>2022-11-27T12:21:26Z</time>
      </trkpt>
      <trkpt lat="36.824664" lon="-3.647655">
        <ele>1158.0</ele>
        <time>2022-11-27T12:22:49Z</time>
      </trkpt>
      <trkpt lat="36.824539" lon="-3.647562">
        <ele>1159.5</ele>
        <time>2022-11-27T12:23:29Z</time>
      </trkpt>
      <trkpt lat="36.824596" lon="-3.647478">
        <ele>1158.5</ele>
        <time>2022-11-27T12:30:26Z</time>
      </trkpt>
      <trkpt lat="36.824605" lon="-3.647403">
        <ele>1159.0</ele>
        <time>2022-11-27T12:33:27Z</time>
      </trkpt>
      <trkpt lat="36.824680" lon="-3.647195">
        <ele>1159.0</ele>
        <time>2022-11-27T12:33:53Z</time>
      </trkpt>
      <trkpt lat="36.824825" lon="-3.647009">
        <ele>1158.5</ele>
        <time>2022-11-27T12:34:19Z</time>
      </trkpt>
      <trkpt lat="36.824920" lon="-3.646790">
        <ele>1158.0</ele>
        <time>2022-11-27T12:35:01Z</time>
      </trkpt>
      <trkpt lat="36.825054" lon="-3.646689">
        <ele>1157.6</ele>
        <time>2022-11-27T12:35:42Z</time>
      </trkpt>
      <trkpt lat="36.825059" lon="-3.646467">
        <ele>1154.7</ele>
        <time>2022-11-27T12:36:04Z</time>
      </trkpt>
      <trkpt lat="36.825222" lon="-3.646472">
        <ele>1151.8</ele>
        <time>2022-11-27T12:36:43Z</time>
      </trkpt>
      <trkpt lat="36.825199" lon="-3.646292">
        <ele>1150.8</ele>
        <time>2022-11-27T12:37:23Z</time>
      </trkpt>
      <trkpt lat="36.825186" lon="-3.646112">
        <ele>1145.1</ele>
        <time>2022-11-27T12:38:17Z</time>
      </trkpt>
      <trkpt lat="36.825196" lon="-3.645939">
        <ele>1143.6</ele>
        <time>2022-11-27T12:39:41Z</time>
      </trkpt>
      <trkpt lat="36.825136" lon="-3.645780">
        <ele>1138.8</ele>
        <time>2022-11-27T12:40:03Z</time>
      </trkpt>
      <trkpt lat="36.825014" lon="-3.645558">
        <ele>1140.7</ele>
        <time>2022-11-27T12:41:30Z</time>
      </trkpt>
      <trkpt lat="36.824990" lon="-3.645317">
        <ele>1141.7</ele>
        <time>2022-11-27T12:42:33Z</time>
      </trkpt>
      <trkpt lat="36.824978" lon="-3.645065">
        <ele>1142.2</ele>
        <time>2022-11-27T12:43:18Z</time>
      </trkpt>
      <trkpt lat="36.825075" lon="-3.644867">
        <ele>1148.0</ele>
        <time>2022-11-27T12:45:10Z</time>
      </trkpt>
      <trkpt lat="36.825077" lon="-3.644631">
        <ele>1152.3</ele>
        <time>2022-11-27T12:45:49Z</time>
      </trkpt>
      <trkpt lat="36.825067" lon="-3.644389">
        <ele>1155.2</ele>
        <time>2022-11-27T12:47:18Z</time>
      </trkpt>
      <trkpt lat="36.825045" lon="-3.644132">
        <ele>1157.1</ele>
        <time>2022-11-27T12:47:55Z</time>
      </trkpt>
      <trkpt lat="36.825091" lon="-3.643973">
        <ele>1161.9</ele>
        <time>2022-11-27T12:50:11Z</time>
      </trkpt>
      <trkpt lat="36.825068" lon="-3.643708">
        <ele>1168.1</ele>
        <time>2022-11-27T12:50:53Z</time>
      </trkpt>
      <trkpt lat="36.825103" lon="-3.643528">
        <ele>1174.4</ele>
        <time>2022-11-27T12:52:09Z</time>
      </trkpt>
      <trkpt lat="36.825087" lon="-3.643453">
        <ele>1173.9</ele>
        <time>2022-11-27T12:54:52Z</time>
      </trkpt>
      <trkpt lat="36.825114" lon="-3.643496">
        <ele>1172.5</ele>
        <time>2022-11-27T12:59:10Z</time>
      </trkpt>
      <trkpt lat="36.825041" lon="-3.643605">
        <ele>1172.0</ele>
        <time>2022-11-27T13:02:09Z</time>
      </trkpt>
      <trkpt lat="36.824967" lon="-3.643460">
        <ele>1173.4</ele>
        <time>2022-11-27T13:02:49Z</time>
      </trkpt>
      <trkpt lat="36.824894" lon="-3.643308">
        <ele>1174.4</ele>
        <time>2022-11-27T13:03:38Z</time>
      </trkpt>
      <trkpt lat="36.824803" lon="-3.643179">
        <ele>1172.9</ele>
        <time>2022-11-27T13:04:09Z</time>
      </trkpt>
      <trkpt lat="36.824748" lon="-3.643058">
        <ele>1169.1</ele>
        <time>2022-11-27T13:05:51Z</time>
      </trkpt>
      <trkpt lat="36.824659" lon="-3.642977">
        <ele>1162.4</ele>
        <time>2022-11-27T13:07:05Z</time>
      </trkpt>
      <trkpt lat="36.824585" lon="-3.642827">
        <ele>1155.6</ele>
        <time>2022-11-27T13:08:33Z</time>
      </trkpt>
      <trkpt lat="36.824525" lon="-3.642647">
        <ele>1151.3</ele>
        <time>2022-11-27T13:09:29Z</time>
      </trkpt>
      <trkpt lat="36.824455" lon="-3.642452">
        <ele>1146.5</ele>
        <time>2022-11-27T13:10:11Z</time>
      </trkpt>
      <trkpt lat="36.824379" lon="-3.642293">
        <ele>1141.2</ele>
        <time>2022-11-27T13:11:25Z</time>
      </trkpt>
      <trkpt lat="36.824271" lon="-3.642168">
        <ele>1137.4</ele>
        <time>2022-11-27T13:12:04Z</time>
      </trkpt>
      <trkpt lat="36.824194" lon="-3.642338">
        <ele>1130.2</ele>
        <time>2022-11-27T13:12:55Z</time>
      </trkpt>
      <trkpt lat="36.824126" lon="-3.642551">
        <ele>1125.4</ele>
        <time>2022-11-27T13:13:30Z</time>
      </trkpt>
      <trkpt lat="36.824061" lon="-3.642348">
        <ele>1121.5</ele>
        <time>2022-11-27T13:14:04Z</time>
      </trkpt>
      <trkpt lat="36.823978" lon="-3.642147">
        <ele>1117.7</ele>
        <time>2022-11-27T13:14:44Z</time>
      </trkpt>
      <trkpt lat="36.823894" lon="-3.641938">
        <ele>1112.9</ele>
        <time>2022-11-27T13:15:20Z</time>
      </trkpt>
      <trkpt lat="36.823814" lon="-3.642011">
        <ele>1106.6</ele>
        <time>2022-11-27T13:15:58Z</time>
      </trkpt>
      <trkpt lat="36.823730" lon="-3.642110">
        <ele>1099.9</ele>
        <time>2022-11-27T13:16:59Z</time>
      </trkpt>
      <trkpt lat="36.823644" lon="-3.641947">
        <ele>1094.6</ele>
        <time>2022-11-27T13:17:40Z</time>
      </trkpt>
      <trkpt lat="36.823530" lon="-3.642016">
        <ele>1088.3</ele>
        <time>2022-11-27T13:18:27Z</time>
      </trkpt>
      <trkpt lat="36.823380" lon="-3.641991">
        <ele>1080.7</ele>
        <time>2022-11-27T13:19:17Z</time>
      </trkpt>
      <trkpt lat="36.823229" lon="-3.642042">
        <ele>1074.4</ele>
        <time>2022-11-27T13:19:57Z</time>
      </trkpt>
      <trkpt lat="36.823087" lon="-3.642115">
        <ele>1068.2</ele>
        <time>2022-11-27T13:20:41Z</time>
      </trkpt>
      <trkpt lat="36.822948" lon="-3.642191">
        <ele>1062.9</ele>
        <time>2022-11-27T13:21:15Z</time>
      </trkpt>
      <trkpt lat="36.822789" lon="-3.642225">
        <ele>1056.6</ele>
        <time>2022-11-27T13:21:42Z</time>
      </trkpt>
      <trkpt lat="36.822624" lon="-3.642281">
        <ele>1046.5</ele>
        <time>2022-11-27T13:22:37Z</time>
      </trkpt>
      <trkpt lat="36.822456" lon="-3.642330">
        <ele>1040.3</ele>
        <time>2022-11-27T13:23:13Z</time>
      </trkpt>
      <trkpt lat="36.822290" lon="-3.642377">
        <ele>1034.0</ele>
        <time>2022-11-27T13:23:40Z</time>
      </trkpt>
      <trkpt lat="36.822135" lon="-3.642374">
        <ele>1027.8</ele>
        <time>2022-11-27T13:24:10Z</time>
      </trkpt>
      <trkpt lat="36.821966" lon="-3.642418">
        <ele>1023.0</ele>
        <time>2022-11-27T13:24:46Z</time>
      </trkpt>
      <trkpt lat="36.821803" lon="-3.642489">
        <ele>1013.4</ele>
        <time>2022-11-27T13:25:22Z</time>
      </trkpt>
      <trkpt lat="36.821654" lon="-3.642527">
        <ele>1004.2</ele>
        <time>2022-11-27T13:25:57Z</time>
      </trkpt>
      <trkpt lat="36.821499" lon="-3.642571">
        <ele>998.9</ele>
        <time>2022-11-27T13:26:32Z</time>
      </trkpt>
      <trkpt lat="36.821317" lon="-3.642636">
        <ele>991.3</ele>
        <time>2022-11-27T13:26:55Z</time>
      </trkpt>
      <trkpt lat="36.821157" lon="-3.642651">
        <ele>986.0</ele>
        <time>2022-11-27T13:27:38Z</time>
      </trkpt>
      <trkpt lat="36.820973" lon="-3.642668">
        <ele>985.0</ele>
        <time>2022-11-27T13:27:58Z</time>
      </trkpt>
      <trkpt lat="36.820791" lon="-3.642706">
        <ele>987.4</ele>
        <time>2022-11-27T13:28:20Z</time>
      </trkpt>
      <trkpt lat="36.820620" lon="-3.642701">
        <ele>987.9</ele>
        <time>2022-11-27T13:28:42Z</time>
      </trkpt>
      <trkpt lat="36.820443" lon="-3.642680">
        <ele>987.9</ele>
        <time>2022-11-27T13:29:03Z</time>
      </trkpt>
      <trkpt lat="36.820277" lon="-3.642725">
        <ele>981.2</ele>
        <time>2022-11-27T13:29:32Z</time>
      </trkpt>
      <trkpt lat="36.820131" lon="-3.642828">
        <ele>975.9</ele>
        <time>2022-11-27T13:29:58Z</time>
      </trkpt>
      <trkpt lat="36.819965" lon="-3.642904">
        <ele>969.1</ele>
        <time>2022-11-27T13:30:28Z</time>
      </trkpt>
      <trkpt lat="36.819813" lon="-3.643035">
        <ele>965.3</ele>
        <time>2022-11-27T13:30:52Z</time>
      </trkpt>
      <trkpt lat="36.819645" lon="-3.643052">
        <ele>962.9</ele>
        <time>2022-11-27T13:31:15Z</time>
      </trkpt>
      <trkpt lat="36.819470" lon="-3.643035">
        <ele>960.5</ele>
        <time>2022-11-27T13:31:37Z</time>
      </trkpt>
      <trkpt lat="36.819299" lon="-3.642953">
        <ele>958.6</ele>
        <time>2022-11-27T13:31:57Z</time>
      </trkpt>
      <trkpt lat="36.819168" lon="-3.642817">
        <ele>956.6</ele>
        <time>2022-11-27T13:32:25Z</time>
      </trkpt>
      <trkpt lat="36.819030" lon="-3.642672">
        <ele>952.3</ele>
        <time>2022-11-27T13:32:52Z</time>
      </trkpt>
      <trkpt lat="36.818918" lon="-3.642516">
        <ele>949.4</ele>
        <time>2022-11-27T13:33:15Z</time>
      </trkpt>
      <trkpt lat="36.818890" lon="-3.642548">
        <ele>950.4</ele>
        <time>2022-11-27T13:33:53Z</time>
      </trkpt>
      <trkpt lat="36.818847" lon="-3.642353">
        <ele>946.1</ele>
        <time>2022-11-27T13:34:32Z</time>
      </trkpt>
      <trkpt lat="36.818778" lon="-3.642166">
        <ele>944.2</ele>
        <time>2022-11-27T13:35:04Z</time>
      </trkpt>
      <trkpt lat="36.818712" lon="-3.642006">
        <ele>941.7</ele>
        <time>2022-11-27T13:35:57Z</time>
      </trkpt>
      <trkpt lat="36.818634" lon="-3.641825">
        <ele>940.3</ele>
        <time>2022-11-27T13:36:38Z</time>
      </trkpt>
      <trkpt lat="36.818559" lon="-3.641599">
        <ele>938.9</ele>
        <time>2022-11-27T13:37:19Z</time>
      </trkpt>
      <trkpt lat="36.818493" lon="-3.641370">
        <ele>941.7</ele>
        <time>2022-11-27T13:37:44Z</time>
      </trkpt>
      <trkpt lat="36.818396" lon="-3.641179">
        <ele>944.2</ele>
        <time>2022-11-27T13:38:19Z</time>
      </trkpt>
      <trkpt lat="36.818327" lon="-3.640977">
        <ele>945.1</ele>
        <time>2022-11-27T13:39:03Z</time>
      </trkpt>
      <trkpt lat="36.818218" lon="-3.640786">
        <ele>943.2</ele>
        <time>2022-11-27T13:39:24Z</time>
      </trkpt>
      <trkpt lat="36.818103" lon="-3.640607">
        <ele>943.7</ele>
        <time>2022-11-27T13:39:41Z</time>
      </trkpt>
      <trkpt lat="36.817964" lon="-3.640444">
        <ele>943.2</ele>
        <time>2022-11-27T13:40:00Z</time>
      </trkpt>
      <trkpt lat="36.817838" lon="-3.640316">
        <ele>943.2</ele>
        <time>2022-11-27T13:40:44Z</time>
      </trkpt>
      <trkpt lat="36.817731" lon="-3.640154">
        <ele>941.7</ele>
        <time>2022-11-27T13:41:24Z</time>
      </trkpt>
      <trkpt lat="36.817672" lon="-3.640066">
        <ele>940.3</ele>
        <time>2022-11-27T13:45:13Z</time>
      </trkpt>
      <trkpt lat="36.817594" lon="-3.639879">
        <ele>936.5</ele>
        <time>2022-11-27T13:45:52Z</time>
      </trkpt>
      <trkpt lat="36.817552" lon="-3.639697">
        <ele>929.7</ele>
        <time>2022-11-27T13:46:40Z</time>
      </trkpt>
      <trkpt lat="36.817457" lon="-3.639539">
        <ele>924.4</ele>
        <time>2022-11-27T13:48:34Z</time>
      </trkpt>
      <trkpt lat="36.817481" lon="-3.639347">
        <ele>917.2</ele>
        <time>2022-11-27T13:49:18Z</time>
      </trkpt>
      <trkpt lat="36.817516" lon="-3.639238">
        <ele>910.5</ele>
        <time>2022-11-27T13:54:12Z</time>
      </trkpt>
      <trkpt lat="36.817473" lon="-3.639037">
        <ele>902.8</ele>
        <time>2022-11-27T13:55:48Z</time>
      </trkpt>
      <trkpt lat="36.817518" lon="-3.638871">
        <ele>895.1</ele>
        <time>2022-11-27T13:57:07Z</time>
      </trkpt>
      <trkpt lat="36.817634" lon="-3.638801">
        <ele>891.8</ele>
        <time>2022-11-27T13:58:09Z</time>
      </trkpt>
      <trkpt lat="36.817614" lon="-3.638585">
        <ele>891.8</ele>
        <time>2022-11-27T13:58:26Z</time>
      </trkpt>
      <trkpt lat="36.817583" lon="-3.638350">
        <ele>890.3</ele>
        <time>2022-11-27T13:58:41Z</time>
      </trkpt>
      <trkpt lat="36.817574" lon="-3.638120">
        <ele>888.4</ele>
        <time>2022-11-27T13:59:01Z</time>
      </trkpt>
      <trkpt lat="36.817577" lon="-3.637874">
        <ele>888.4</ele>
        <time>2022-11-27T13:59:17Z</time>
      </trkpt>
      <trkpt lat="36.817607" lon="-3.637628">
        <ele>886.5</ele>
        <time>2022-11-27T13:59:32Z</time>
      </trkpt>
      <trkpt lat="36.817686" lon="-3.637421">
        <ele>884.6</ele>
        <time>2022-11-27T13:59:48Z</time>
      </trkpt>
      <trkpt lat="36.817724" lon="-3.637177">
        <ele>881.2</ele>
        <time>2022-11-27T14:00:03Z</time>
      </trkpt>
      <trkpt lat="36.817780" lon="-3.636960">
        <ele>881.7</ele>
        <time>2022-11-27T14:00:19Z</time>
      </trkpt>
      <trkpt lat="36.817818" lon="-3.636726">
        <ele>880.2</ele>
        <time>2022-11-27T14:00:48Z</time>
      </trkpt>
      <trkpt lat="36.817892" lon="-3.636511">
        <ele>875.9</ele>
        <time>2022-11-27T14:01:07Z</time>
      </trkpt>
      <trkpt lat="36.817987" lon="-3.636313">
        <ele>873.5</ele>
        <time>2022-11-27T14:01:22Z</time>
      </trkpt>
      <trkpt lat="36.818092" lon="-3.636155">
        <ele>872.1</ele>
        <time>2022-11-27T14:02:13Z</time>
      </trkpt>
      <trkpt lat="36.818223" lon="-3.635988">
        <ele>868.7</ele>
        <time>2022-11-27T14:02:36Z</time>
      </trkpt>
      <trkpt lat="36.818361" lon="-3.635853">
        <ele>866.8</ele>
        <time>2022-11-27T14:02:53Z</time>
      </trkpt>
      <trkpt lat="36.818507" lon="-3.635733">
        <ele>862.9</ele>
        <time>2022-11-27T14:03:13Z</time>
      </trkpt>
      <trkpt lat="36.818523" lon="-3.635639">
        <ele>859.1</ele>
        <time>2022-11-27T14:03:34Z</time>
      </trkpt>
      <trkpt lat="36.818344" lon="-3.635587">
        <ele>857.2</ele>
        <time>2022-11-27T14:03:54Z</time>
      </trkpt>
      <trkpt lat="36.818170" lon="-3.635625">
        <ele>852.3</ele>
        <time>2022-11-27T14:04:41Z</time>
      </trkpt>
      <trkpt lat="36.817983" lon="-3.635668">
        <ele>848.5</ele>
        <time>2022-11-27T14:05:15Z</time>
      </trkpt>
      <trkpt lat="36.817794" lon="-3.635675">
        <ele>845.1</ele>
        <time>2022-11-27T14:05:40Z</time>
      </trkpt>
      <trkpt lat="36.817631" lon="-3.635639">
        <ele>841.8</ele>
        <time>2022-11-27T14:06:14Z</time>
      </trkpt>
      <trkpt lat="36.817456" lon="-3.635579">
        <ele>840.3</ele>
        <time>2022-11-27T14:06:34Z</time>
      </trkpt>
      <trkpt lat="36.817269" lon="-3.635572">
        <ele>835.5</ele>
        <time>2022-11-27T14:07:32Z</time>
      </trkpt>
      <trkpt lat="36.817081" lon="-3.635566">
        <ele>834.6</ele>
        <time>2022-11-27T14:07:48Z</time>
      </trkpt>
      <trkpt lat="36.816907" lon="-3.635509">
        <ele>830.7</ele>
        <time>2022-11-27T14:08:11Z</time>
      </trkpt>
      <trkpt lat="36.816751" lon="-3.635450">
        <ele>828.3</ele>
        <time>2022-11-27T14:10:36Z</time>
      </trkpt>
      <trkpt lat="36.816575" lon="-3.635428">
        <ele>826.4</ele>
        <time>2022-11-27T14:10:56Z</time>
      </trkpt>
      <trkpt lat="36.816580" lon="-3.635662">
        <ele>823.5</ele>
        <time>2022-11-27T14:11:17Z</time>
      </trkpt>
      <trkpt lat="36.816599" lon="-3.635902">
        <ele>820.1</ele>
        <time>2022-11-27T14:11:39Z</time>
      </trkpt>
      <trkpt lat="36.816607" lon="-3.636145">
        <ele>817.3</ele>
        <time>2022-11-27T14:11:59Z</time>
      </trkpt>
      <trkpt lat="36.816621" lon="-3.636391">
        <ele>814.9</ele>
        <time>2022-11-27T14:12:24Z</time>
      </trkpt>
      <trkpt lat="36.816533" lon="-3.636226">
        <ele>812.5</ele>
        <time>2022-11-27T14:12:42Z</time>
      </trkpt>
      <trkpt lat="36.816436" lon="-3.636034">
        <ele>810.5</ele>
        <time>2022-11-27T14:12:59Z</time>
      </trkpt>
      <trkpt lat="36.816330" lon="-3.635855">
        <ele>807.6</ele>
        <time>2022-11-27T14:13:15Z</time>
      </trkpt>
      <trkpt lat="36.816226" lon="-3.635686">
        <ele>805.7</ele>
        <time>2022-11-27T14:13:45Z</time>
      </trkpt>
      <trkpt lat="36.816102" lon="-3.635533">
        <ele>802.4</ele>
        <time>2022-11-27T14:14:09Z</time>
      </trkpt>
      <trkpt lat="36.815994" lon="-3.635359">
        <ele>800.4</ele>
        <time>2022-11-27T14:14:26Z</time>
      </trkpt>
      <trkpt lat="36.815854" lon="-3.635228">
        <ele>797.6</ele>
        <time>2022-11-27T14:14:45Z</time>
      </trkpt>
      <trkpt lat="36.815705" lon="-3.635099">
        <ele>795.1</ele>
        <time>2022-11-27T14:15:01Z</time>
      </trkpt>
      <trkpt lat="36.815597" lon="-3.634936">
        <ele>793.7</ele>
        <time>2022-11-27T14:15:17Z</time>
      </trkpt>
      <trkpt lat="36.815525" lon="-3.634752">
        <ele>790.8</ele>
        <time>2022-11-27T14:15:33Z</time>
      </trkpt>
      <trkpt lat="36.815611" lon="-3.634555">
        <ele>789.4</ele>
        <time>2022-11-27T14:15:51Z</time>
      </trkpt>
      <trkpt lat="36.815697" lon="-3.634363">
        <ele>786.0</ele>
        <time>2022-11-27T14:16:14Z</time>
      </trkpt>
      <trkpt lat="36.815783" lon="-3.634169">
        <ele>784.1</ele>
        <time>2022-11-27T14:16:36Z</time>
      </trkpt>
      <trkpt lat="36.815856" lon="-3.634040">
        <ele>778.8</ele>
        <time>2022-11-27T14:17:01Z</time>
      </trkpt>
      <trkpt lat="36.815679" lon="-3.634105">
        <ele>776.4</ele>
        <time>2022-11-27T14:17:37Z</time>
      </trkpt>
      <trkpt lat="36.815519" lon="-3.634275">
        <ele>775.0</ele>
        <time>2022-11-27T14:17:58Z</time>
      </trkpt>
      <trkpt lat="36.815347" lon="-3.634413">
        <ele>772.1</ele>
        <time>2022-11-27T14:18:19Z</time>
      </trkpt>
      <trkpt lat="36.815156" lon="-3.634470">
        <ele>768.2</ele>
        <time>2022-11-27T14:18:40Z</time>
      </trkpt>
      <trkpt lat="36.814980" lon="-3.634546">
        <ele>765.3</ele>
        <time>2022-11-27T14:19:00Z</time>
      </trkpt>
      <trkpt lat="36.814810" lon="-3.634710">
        <ele>764.9</ele>
        <time>2022-11-27T14:19:19Z</time>
      </trkpt>
      <trkpt lat="36.814688" lon="-3.634898">
        <ele>761.5</ele>
        <time>2022-11-27T14:19:37Z</time>
      </trkpt>
      <trkpt lat="36.814643" lon="-3.635143">
        <ele>758.1</ele>
        <time>2022-11-27T14:20:17Z</time>
      </trkpt>
      <trkpt lat="36.814509" lon="-3.635183">
        <ele>752.8</ele>
        <time>2022-11-27T14:20:36Z</time>
      </trkpt>
      <trkpt lat="36.814444" lon="-3.634992">
        <ele>750.4</ele>
        <time>2022-11-27T14:20:58Z</time>
      </trkpt>
      <trkpt lat="36.814498" lon="-3.634766">
        <ele>748.0</ele>
        <time>2022-11-27T14:21:13Z</time>
      </trkpt>
      <trkpt lat="36.814611" lon="-3.634590">
        <ele>747.6</ele>
        <time>2022-11-27T14:21:28Z</time>
      </trkpt>
      <trkpt lat="36.814696" lon="-3.634392">
        <ele>743.7</ele>
        <time>2022-11-27T14:21:44Z</time>
      </trkpt>
      <trkpt lat="36.814795" lon="-3.634205">
        <ele>740.8</ele>
        <time>2022-11-27T14:22:01Z</time>
      </trkpt>
      <trkpt lat="36.814931" lon="-3.634049">
        <ele>738.4</ele>
        <time>2022-11-27T14:22:18Z</time>
      </trkpt>
      <trkpt lat="36.815021" lon="-3.633902">
        <ele>736.0</ele>
        <time>2022-11-27T14:22:36Z</time>
      </trkpt>
      <trkpt lat="36.814848" lon="-3.634014">
        <ele>731.7</ele>
        <time>2022-11-27T14:22:55Z</time>
      </trkpt>
      <trkpt lat="36.814868" lon="-3.633931">
        <ele>728.8</ele>
        <time>2022-11-27T14:23:14Z</time>
      </trkpt>
      <trkpt lat="36.814949" lon="-3.633739">
        <ele>727.4</ele>
        <time>2022-11-27T14:23:31Z</time>
      </trkpt>
      <trkpt lat="36.814972" lon="-3.633514">
        <ele>725.0</ele>
        <time>2022-11-27T14:23:45Z</time>
      </trkpt>
      <trkpt lat="36.815005" lon="-3.633286">
        <ele>723.0</ele>
        <time>2022-11-27T14:23:59Z</time>
      </trkpt>
      <trkpt lat="36.815121" lon="-3.633102">
        <ele>721.6</ele>
        <time>2022-11-27T14:24:14Z</time>
      </trkpt>
      <trkpt lat="36.815248" lon="-3.632960">
        <ele>718.2</ele>
        <time>2022-11-27T14:24:29Z</time>
      </trkpt>
      <trkpt lat="36.815417" lon="-3.632872">
        <ele>714.9</ele>
        <time>2022-11-27T14:24:45Z</time>
      </trkpt>
      <trkpt lat="36.815582" lon="-3.632793">
        <ele>713.0</ele>
        <time>2022-11-27T14:25:04Z</time>
      </trkpt>
      <trkpt lat="36.815753" lon="-3.632706">
        <ele>711.0</ele>
        <time>2022-11-27T14:25:20Z</time>
      </trkpt>
      <trkpt lat="36.815934" lon="-3.632655">
        <ele>708.6</ele>
        <time>2022-11-27T14:25:35Z</time>
      </trkpt>
      <trkpt lat="36.815997" lon="-3.632656">
        <ele>708.1</ele>
        <time>2022-11-27T14:25:52Z</time>
      </trkpt>
      <trkpt lat="36.815836" lon="-3.632521">
        <ele>705.3</ele>
        <time>2022-11-27T14:26:07Z</time>
      </trkpt>
      <trkpt lat="36.815645" lon="-3.632490">
        <ele>703.3</ele>
        <time>2022-11-27T14:26:22Z</time>
      </trkpt>
      <trkpt lat="36.815447" lon="-3.632486">
        <ele>700.9</ele>
        <time>2022-11-27T14:26:38Z</time>
      </trkpt>
      <trkpt lat="36.815254" lon="-3.632505">
        <ele>698.5</ele>
        <time>2022-11-27T14:26:53Z</time>
      </trkpt>
      <trkpt lat="36.815067" lon="-3.632546">
        <ele>696.6</ele>
        <time>2022-11-27T14:27:12Z</time>
      </trkpt>
      <trkpt lat="36.814884" lon="-3.632607">
        <ele>694.7</ele>
        <time>2022-11-27T14:27:29Z</time>
      </trkpt>
      <trkpt lat="36.814696" lon="-3.632686">
        <ele>693.2</ele>
        <time>2022-11-27T14:27:47Z</time>
      </trkpt>
      <trkpt lat="36.814568" lon="-3.632902">
        <ele>688.0</ele>
        <time>2022-11-27T14:28:07Z</time>
      </trkpt>
      <trkpt lat="36.814565" lon="-3.632741">
        <ele>685.1</ele>
        <time>2022-11-27T14:28:25Z</time>
      </trkpt>
      <trkpt lat="36.814605" lon="-3.632532">
        <ele>683.2</ele>
        <time>2022-11-27T14:28:40Z</time>
      </trkpt>
      <trkpt lat="36.814763" lon="-3.632420">
        <ele>682.2</ele>
        <time>2022-11-27T14:28:57Z</time>
      </trkpt>
      <trkpt lat="36.814911" lon="-3.632273">
        <ele>679.3</ele>
        <time>2022-11-27T14:29:13Z</time>
      </trkpt>
      <trkpt lat="36.815042" lon="-3.632113">
        <ele>677.9</ele>
        <time>2022-11-27T14:29:28Z</time>
      </trkpt>
      <trkpt lat="36.815156" lon="-3.631917">
        <ele>675.9</ele>
        <time>2022-11-27T14:29:44Z</time>
      </trkpt>
      <trkpt lat="36.815313" lon="-3.631757">
        <ele>673.5</ele>
        <time>2022-11-27T14:30:01Z</time>
      </trkpt>
      <trkpt lat="36.815481" lon="-3.631636">
        <ele>670.7</ele>
        <time>2022-11-27T14:30:20Z</time>
      </trkpt>
      <trkpt lat="36.815617" lon="-3.631538">
        <ele>666.8</ele>
        <time>2022-11-27T14:30:43Z</time>
      </trkpt>
      <trkpt lat="36.815644" lon="-3.631533">
        <ele>876.9</ele>
        <time>2022-11-28T14:47:18Z</time>
      </trkpt>
      <trkpt lat="36.815644" lon="-3.631533">
        <ele>876.4</ele>
        <time>2022-11-28T14:47:28Z</time>
      </trkpt>
    </trkseg>
  </trk>
</gpx>
